createdAt,value
2022-11-02T00:02:26.963Z,1.27
2022-11-02T00:07:04.331Z,0.98
2022-11-02T00:09:03.384Z,0.90
2022-11-02T00:18:25.814Z,1.07
2022-11-02T00:21:31.696Z,1.73
2022-11-02T00:24:30.484Z,1.13
2022-11-02T00:27:17.462Z,1.20
2022-11-02T00:30:37.456Z,1.33
2022-11-02T00:33:45.004Z,1.40
2022-11-02T00:40:32.129Z,1.38
2022-11-02T00:43:56.860Z,1.83
2022-11-02T00:47:38.633Z,0.97
2022-11-02T00:51:29.093Z,1.13
2022-11-02T00:55:12.464Z,1.10
2022-11-02T00:59:39.292Z,1.17
2022-11-02T01:01:40.248Z,0.95
2022-11-02T01:04:28.060Z,1.38
2022-11-02T01:14:39.314Z,1.10
2022-11-02T01:19:25.597Z,1.23
2022-11-02T01:25:08.004Z,1.00
2022-11-02T01:28:25.934Z,1.05
2022-11-02T01:31:30.827Z,0.83
2022-11-02T01:35:12.365Z,1.13
2022-11-02T01:41:34.716Z,1.38
2022-11-02T01:45:16.543Z,0.90
2022-11-02T01:52:39.204Z,1.05
2022-11-02T01:55:36.431Z,1.35
2022-11-02T01:58:49.370Z,0.95
2022-11-02T02:01:56.533Z,1.10
2022-11-02T02:04:59.534Z,0.93
2022-11-02T02:08:10.043Z,1.20
2022-11-02T02:11:32.725Z,0.60
2022-11-02T02:14:56.903Z,0.93
2022-11-02T02:25:47.144Z,1.23
2022-11-02T02:29:30.530Z,1.00
2022-11-02T02:33:04.738Z,0.93
2022-11-02T02:40:33.811Z,1.02
2022-11-02T02:44:09.706Z,1.27
2022-11-02T02:47:31.423Z,1.10
2022-11-02T02:50:42.612Z,1.10
2022-11-02T02:53:53.950Z,1.30
2022-11-02T02:58:44.093Z,0.90
2022-11-02T03:00:38.563Z,1.25
2022-11-02T03:04:13.820Z,0.80
2022-11-02T03:22:14.470Z,1.30
2022-11-02T03:25:58.158Z,1.65
2022-11-02T03:40:38.299Z,1.42
2022-11-02T04:16:11.800Z,1.10
2022-11-02T04:20:15.946Z,1.05
2022-11-02T04:23:49.860Z,1.25
2022-11-02T04:29:01.442Z,0.85
2022-11-02T04:31:48.176Z,1.27
2022-11-02T04:34:51.566Z,0.90
2022-11-02T04:38:27.523Z,1.50
2022-11-02T04:41:49.039Z,1.30
2022-11-02T04:55:53.401Z,0.87
2022-11-02T05:31:49.102Z,1.27
2022-11-02T05:36:10.228Z,1.13
2022-11-02T05:45:23.565Z,0.93
2022-11-02T05:54:21.473Z,1.10
2022-11-02T06:01:14.417Z,1.67
2022-11-02T06:07:29.376Z,1.05
2022-11-02T06:21:15.800Z,1.00
2022-11-02T06:43:10.884Z,1.38
2022-11-02T07:21:47.684Z,0.93
2022-11-02T09:17:56.298Z,1.10
2022-11-02T09:20:56.524Z,0.80
2022-11-02T09:24:03.316Z,1.13
2022-11-02T09:27:55.269Z,1.40
2022-11-02T09:35:42.732Z,0.77
2022-11-02T09:56:48.459Z,0.70
2022-11-02T10:30:39.151Z,1.00
2022-11-02T10:42:18.926Z,1.02
2022-11-02T10:56:49.157Z,0.90
2022-11-02T11:07:25.214Z,0.98
2022-11-02T11:20:40.096Z,1.20
2022-11-02T11:34:36.053Z,0.63
2022-11-02T11:37:27.982Z,0.65
2022-11-02T11:40:33.992Z,0.98
2022-11-02T11:43:28.600Z,0.95
2022-11-02T11:46:25.835Z,0.70
2022-11-02T11:52:55.999Z,0.77
2022-11-02T11:56:13.076Z,0.60
2022-11-02T11:59:05.548Z,0.75
2022-11-02T12:05:48.375Z,0.50
2022-11-02T12:12:49.170Z,0.80
2022-11-02T12:16:07.091Z,0.70
2022-11-02T12:19:34.514Z,0.90
2022-11-02T12:23:27.245Z,0.60
2022-11-02T12:26:23.605Z,0.50
2022-11-02T12:29:46.648Z,0.93
2022-11-02T12:33:00.248Z,0.60
2022-11-02T12:47:04.442Z,0.45
2022-11-02T12:50:34.180Z,0.73
2022-11-02T12:54:06.381Z,0.83
2022-11-02T13:01:02.264Z,0.40
2022-11-02T19:07:23.716Z,2.05
2022-11-02T19:10:29.526Z,1.70
2022-11-02T19:13:25.634Z,2.38
2022-11-02T19:16:25.594Z,1.85
2022-11-02T19:19:20.552Z,1.88
2022-11-02T19:22:54.374Z,2.33
2022-11-02T19:29:15.782Z,1.90
2022-11-02T19:32:12.691Z,1.80
2022-11-02T19:35:27.886Z,2.53
2022-11-02T19:38:26.425Z,2.10
2022-11-02T19:42:19.448Z,2.13
2022-11-02T19:44:49.137Z,3.15
2022-11-02T19:51:14.662Z,1.98
2022-11-02T19:54:14.843Z,1.95
2022-11-02T19:57:04.004Z,1.77
2022-11-02T19:59:56.058Z,1.80
2022-11-02T20:02:59.379Z,2.25
2022-11-02T20:05:58.809Z,2.42
2022-11-02T20:08:45.070Z,3.70
2022-11-02T20:11:40.464Z,2.95
2022-11-02T20:14:46.712Z,2.78
2022-11-02T20:17:58.480Z,3.20
2022-11-02T20:21:04.383Z,3.10
2022-11-02T20:24:00.798Z,3.38
2022-11-02T20:26:53.172Z,2.90
2022-11-02T20:29:50.678Z,3.63
2022-11-02T20:32:36.555Z,3.08
2022-11-02T20:35:49.122Z,2.88
2022-11-02T20:38:34.470Z,3.17
2022-11-02T20:41:28.892Z,3.27
2022-11-02T20:44:16.784Z,2.80
2022-11-02T20:50:32.090Z,2.40
2022-11-02T20:53:55.817Z,2.70
2022-11-02T20:56:40.401Z,2.75
2022-11-02T20:59:43.171Z,2.92
2022-11-02T21:02:41.916Z,2.97
2022-11-02T21:05:30.994Z,2.70
2022-11-02T21:11:48.114Z,2.60
2022-11-02T21:14:48.210Z,2.50
2022-11-02T21:18:35.700Z,2.80
2022-11-02T21:21:19.846Z,2.60
2022-11-02T21:24:29.265Z,2.83
2022-11-02T21:27:28.703Z,2.40
2022-11-02T21:30:18.470Z,2.20
2022-11-02T21:33:21.741Z,2.35
2022-11-02T21:36:10.803Z,2.35
2022-11-02T21:39:28.209Z,2.20
2022-11-02T21:44:01.424Z,2.10
2022-11-02T21:45:38.030Z,2.20
2022-11-02T21:51:48.224Z,2.22
2022-11-02T21:54:47.888Z,2.30
2022-11-02T21:57:48.472Z,2.50
2022-11-02T22:00:55.299Z,2.28
2022-11-02T22:03:47.656Z,2.47
2022-11-02T22:08:22.892Z,2.25
2022-11-02T22:09:57.568Z,2.30
2022-11-02T22:13:15.827Z,2.38
2022-11-02T22:16:22.394Z,2.42
2022-11-02T22:19:13.776Z,2.20
2022-11-02T22:22:15.234Z,2.13
2022-11-02T22:25:14.702Z,2.07
2022-11-02T22:28:14.560Z,2.15
2022-11-02T22:31:13.504Z,2.47
2022-11-02T22:34:19.304Z,2.03
2022-11-02T22:37:25.511Z,2.47
2022-11-02T22:40:34.466Z,2.35
2022-11-02T22:43:39.067Z,2.08
2022-11-02T22:47:07.809Z,2.05
2022-11-02T22:53:13.555Z,2.03
2022-11-02T22:56:30.163Z,2.13
2022-11-02T23:01:02.006Z,2.03
2022-11-02T23:02:43.878Z,1.70
2022-11-02T23:05:39.118Z,2.55
2022-11-02T23:08:34.732Z,2.00
2022-11-02T23:11:33.773Z,2.28
2022-11-02T23:19:10.202Z,2.10
2022-11-02T23:21:28.774Z,2.40
2022-11-02T23:25:29.915Z,2.08
2022-11-02T23:28:01.495Z,2.60
2022-11-02T23:31:07.333Z,1.85
2022-11-02T23:34:04.790Z,1.92
2022-11-02T23:40:10.435Z,2.15
2022-11-02T23:43:10.137Z,2.38
2022-11-02T23:45:59.227Z,2.20
2022-11-02T23:48:49.778Z,1.98
2022-11-02T23:52:23.687Z,2.30
2022-11-02T23:55:42.443Z,2.33
2022-11-02T23:58:44.011Z,2.00
